Hoosick Falls, New York
Current Conditions -  °F | °C
As of 1:54 PM on Friday 26 Dec 2014 (Local Time) from KDDH Reporting Station
Overcast Overcast  
Wind Chill: 36°   Ceiling: 3200
Heat Index: 42°   Visibility: 10mi
Dew Point: 28°   Wind: 10mph
Humidity: 58%   Direction: 280°W
Pressure: 30.15"   Gusts: 17mph
Location:  42.9°N, 73.35°W
Report Text: KDDH 261854Z AUTO 28009G15KT 10SM OVC032 06/M02 A3015 RMK AO2 SLP213 T00561022
Loading
Personal Weather Stations






























Interactive Weather Map New forecast layout! Learn more

10-Day Weather Forecast

Advertisements
Track Severe Weather on mobile